TimeCST,TemperatureF,Dew PointF,Humidity,Sea Level PressureIn,VisibilityMPH,Wind Direction,Wind SpeedMPH,Gust SpeedMPH,PrecipitationIn,Events,Conditions,WindDirDegrees,DateUTC
12:15 AM,14.0,14.0,100,29.71,10.0,SSE,4.6,-,N/A,,Clear,150,2013-02-23 06:15:00
12:35 AM,15.8,15.8,100,29.71,10.0,SSE,4.6,-,N/A,,Clear,150,2013-02-23 06:35:00
12:55 AM,15.8,15.8,100,29.70,10.0,South,6.9,-,N/A,,Clear,180,2013-02-23 06:55:00
1:15 AM,15.8,14.0,93,29.70,10.0,South,6.9,-,N/A,,Clear,170,2013-02-23 07:15:00
1:35 AM,14.0,12.2,93,29.69,10.0,SE,5.8,-,N/A,,Clear,140,2013-02-23 07:35:00
1:55 AM,14.0,14.0,100,29.69,10.0,SE,4.6,-,N/A,,Clear,140,2013-02-23 07:55:00
2:15 AM,12.2,10.4,92,29.68,10.0,SSE,5.8,-,N/A,,Clear,150,2013-02-23 08:15:00
2:35 AM,12.2,10.4,92,29.68,10.0,SE,4.6,-,N/A,,Clear,140,2013-02-23 08:35:00
2:55 AM,10.4,8.6,92,29.68,8.0,ESE,4.6,-,N/A,,Clear,120,2013-02-23 08:55:00
3:15 AM,6.8,3.2,85,29.67,10.0,East,3.5,-,N/A,,Clear,80,2013-02-23 09:15:00
3:35 AM,6.8,3.2,85,29.66,10.0,ESE,6.9,-,N/A,,Clear,110,2013-02-23 09:35:00
3:55 AM,6.8,5.0,92,29.66,10.0,ESE,6.9,-,N/A,,Clear,110,2013-02-23 09:55:00
4:15 AM,6.8,5.0,92,29.65,10.0,ESE,5.8,-,N/A,,Clear,120,2013-02-23 10:15:00
4:35 AM,6.8,5.0,92,29.64,10.0,ESE,4.6,-,N/A,,Clear,110,2013-02-23 10:35:00
4:55 AM,6.8,5.0,92,29.64,10.0,ESE,5.8,-,N/A,Snow,Light Snow,120,2013-02-23 10:55:00
5:15 AM,6.8,5.0,92,29.64,10.0,ESE,5.8,-,N/A,,Clear,110,2013-02-23 11:15:00
5:35 AM,6.8,5.0,92,29.64,10.0,ESE,6.9,-,N/A,Snow,Light Snow,120,2013-02-23 11:35:00
5:55 AM,5.0,3.2,92,29.64,10.0,East,3.5,-,N/A,,Clear,90,2013-02-23 11:55:00
6:15 AM,5.0,1.4,85,29.64,10.0,East,4.6,-,N/A,,Clear,100,2013-02-23 12:15:00
6:35 AM,5.0,1.4,85,29.64,10.0,East,3.5,-,N/A,,Clear,80,2013-02-23 12:35:00
6:55 AM,3.2,-0.4,85,29.64,10.0,East,3.5,-,N/A,,Clear,100,2013-02-23 12:55:00
7:15 AM,1.4,-0.4,92,29.64,10.0,East,4.6,-,N/A,,Clear,90,2013-02-23 13:15:00
7:35 AM,1.4,-0.4,92,29.64,10.0,East,4.6,-,N/A,,Clear,90,2013-02-23 13:35:00
7:55 AM,1.4,-0.4,92,29.64,10.0,East,4.6,-,N/A,,Clear,90,2013-02-23 13:55:00
8:15 AM,1.4,-0.4,92,29.63,10.0,East,3.5,-,N/A,,Clear,80,2013-02-23 14:15:00
8:35 AM,3.2,-0.4,85,29.63,10.0,East,3.5,-,N/A,,Clear,90,2013-02-23 14:35:00
8:55 AM,6.8,3.2,85,29.63,10.0,East,4.6,-,N/A,,Clear,90,2013-02-23 14:55:00
9:15 AM,8.6,6.8,92,29.63,10.0,ESE,5.8,-,N/A,Snow,Light Snow,110,2013-02-23 15:15:00
9:35 AM,10.4,8.6,92,29.63,10.0,ESE,6.9,-,N/A,,Clear,110,2013-02-23 15:35:00
9:55 AM,14.0,12.2,93,29.64,10.0,ESE,5.8,-,N/A,,Clear,120,2013-02-23 15:55:00
10:15 AM,15.8,14.0,93,29.63,10.0,SE,5.8,-,N/A,,Partly Cloudy,130,2013-02-23 16:15:00
10:35 AM,17.6,15.8,93,29.63,10.0,SE,9.2,-,N/A,,Scattered Clouds,140,2013-02-23 16:35:00
10:55 AM,19.4,19.4,100,29.63,10.0,SE,4.6,-,N/A,,Partly Cloudy,140,2013-02-23 16:55:00
11:15 AM,21.2,21.2,100,29.63,10.0,SSE,8.1,-,N/A,Snow,Light Snow,150,2013-02-23 17:15:00
11:35 AM,21.2,21.2,100,29.63,-9999.0,SE,10.4,-,N/A,Snow,Heavy Snow,140,2013-02-23 17:35:00
11:55 AM,23.0,23.0,100,29.63,-9999.0,SE,8.1,-,N/A,,Unknown,140,2013-02-23 17:55:00
12:15 PM,23.0,23.0,100,29.63,10.0,SE,5.8,-,N/A,Snow,Light Snow,130,2013-02-23 18:15:00
12:35 PM,23.0,23.0,100,29.63,10.0,SE,6.9,-,N/A,,Clear,130,2013-02-23 18:35:00
12:55 PM,24.8,23.0,93,29.63,10.0,SSE,5.8,-,N/A,,Clear,150,2013-02-23 18:55:00
1:15 PM,24.8,19.4,80,29.63,-9999.0,SE,4.6,-,N/A,,Clear,130,2013-02-23 19:15:00
1:35 PM,26.6,23.0,86,29.62,10.0,East,5.8,-,N/A,,Partly Cloudy,100,2013-02-23 19:35:00
1:55 PM,28.4,23.0,80,29.62,10.0,ESE,8.1,-,N/A,,Partly Cloudy,120,2013-02-23 19:55:00
2:15 PM,28.4,23.0,80,29.62,10.0,South,8.1,-,N/A,,Clear,180,2013-02-23 20:15:00
2:35 PM,28.4,23.0,80,29.62,10.0,ESE,6.9,-,N/A,,Clear,120,2013-02-23 20:35:00
2:55 PM,28.4,23.0,80,29.63,10.0,Calm,Calm,-,N/A,,Partly Cloudy,0,2013-02-23 20:55:00
3:15 PM,28.4,24.8,86,29.62,10.0,SSE,9.2,-,N/A,,Clear,160,2013-02-23 21:15:00
3:35 PM,30.2,24.8,80,29.63,10.0,South,6.9,-,N/A,,Clear,170,2013-02-23 21:35:00
3:55 PM,30.2,24.8,80,29.63,10.0,South,8.1,-,N/A,,Clear,170,2013-02-23 21:55:00
4:15 PM,30.2,24.8,80,29.63,10.0,SSE,8.1,-,N/A,,Scattered Clouds,150,2013-02-23 22:15:00
4:35 PM,30.2,24.8,80,29.63,-9999.0,SSE,9.2,-,N/A,,Mostly Cloudy,160,2013-02-23 22:35:00
4:55 PM,30.2,26.6,86,29.63,10.0,SE,8.1,-,N/A,,Mostly Cloudy,140,2013-02-23 22:55:00
5:15 PM,30.2,26.6,86,29.64,10.0,SE,8.1,-,N/A,,Overcast,140,2013-02-23 23:15:00
5:35 PM,30.2,26.6,86,29.65,10.0,South,6.9,-,N/A,,Overcast,180,2013-02-23 23:35:00
5:55 PM,28.4,26.6,93,29.66,10.0,South,4.6,-,N/A,,Overcast,170,2013-02-23 23:55:00
6:15 PM,28.4,26.6,93,29.66,10.0,SSW,5.8,-,N/A,,Overcast,200,2013-02-24 00:15:00
6:35 PM,28.4,26.6,93,29.67,10.0,South,4.6,-,N/A,,Overcast,190,2013-02-24 00:35:00
6:55 PM,28.4,26.6,93,29.68,10.0,SSE,4.6,-,N/A,,Overcast,160,2013-02-24 00:55:00
7:15 PM,28.4,26.6,93,29.69,10.0,Calm,Calm,-,N/A,,Overcast,0,2013-02-24 01:15:00
7:35 PM,28.4,26.6,93,29.69,10.0,Calm,Calm,-,N/A,,Overcast,0,2013-02-24 01:35:00
7:55 PM,28.4,26.6,93,29.70,10.0,Calm,Calm,-,N/A,,Overcast,0,2013-02-24 01:55:00
8:15 PM,28.4,26.6,93,29.71,10.0,SE,5.8,-,N/A,,Overcast,130,2013-02-24 02:15:00
8:35 PM,26.6,26.6,100,29.71,10.0,SE,3.5,-,N/A,,Overcast,130,2013-02-24 02:35:00
8:55 PM,26.6,26.6,100,29.71,10.0,SE,3.5,-,N/A,,Overcast,130,2013-02-24 02:55:00
9:35 PM,26.6,24.8,93,29.73,10.0,Calm,Calm,-,N/A,,Overcast,0,2013-02-24 03:35:00
9:55 PM,26.6,26.6,100,29.73,10.0,Calm,Calm,-,N/A,,Overcast,0,2013-02-24 03:55:00
10:15 PM,24.8,24.8,100,29.74,10.0,WSW,3.5,-,N/A,,Mostly Cloudy,240,2013-02-24 04:15:00
10:35 PM,23.0,23.0,100,29.74,10.0,WSW,3.5,-,N/A,,Partly Cloudy,240,2013-02-24 04:35:00
10:55 PM,23.0,23.0,100,29.75,10.0,West,5.8,-,N/A,,Partly Cloudy,260,2013-02-24 04:55:00
11:15 PM,23.0,21.2,93,29.75,10.0,WNW,8.1,-,N/A,,Scattered Clouds,290,2013-02-24 05:15:00
11:35 PM,23.0,21.2,93,29.76,10.0,WNW,8.1,-,N/A,,Clear,290,2013-02-24 05:35:00
11:55 PM,23.0,19.4,86,29.76,10.0,WNW,6.9,-,N/A,,Clear,290,2013-02-24 05:55:00